createdAt,value
2024-04-18T00:00:16.006Z,99989.50
2024-04-18T00:02:42.957Z,99985.06
2024-04-18T00:05:12.543Z,99990.09
2024-04-18T00:07:39.439Z,99985.16
2024-04-18T00:10:09.464Z,99991.66
2024-04-18T00:12:36.334Z,99987.41
2024-04-18T00:15:09.940Z,99991.03
2024-04-18T00:17:36.910Z,99991.66
2024-04-18T00:20:07.113Z,99989.13
2024-04-18T00:22:33.976Z,99995.16
2024-04-18T00:25:03.522Z,99995.38
2024-04-18T00:27:30.478Z,99990.06
2024-04-18T00:29:59.951Z,99992.00
2024-04-18T00:32:29.443Z,99993.19
2024-04-18T00:34:59.007Z,99993.44
2024-04-18T00:37:25.903Z,99993.19
2024-04-18T00:39:55.490Z,99996.47
2024-04-18T00:42:22.326Z,99987.03
2024-04-18T00:44:52.091Z,99994.53
2024-04-18T00:47:18.964Z,99995.25
2024-04-18T00:49:51.168Z,99988.13
2024-04-18T00:52:20.407Z,99989.22
2024-04-18T00:54:50.499Z,99994.53
2024-04-18T00:57:18.840Z,99991.34
2024-04-18T00:59:50.904Z,99997.28
2024-04-18T01:02:18.207Z,99992.91
2024-04-18T01:04:47.934Z,99986.28
2024-04-18T01:07:17.594Z,99987.88
2024-04-18T01:09:47.299Z,99989.66
2024-04-18T01:12:14.299Z,99995.09
2024-04-18T01:14:45.021Z,99992.53
2024-04-18T01:17:12.151Z,99997.84
2024-04-18T01:19:42.368Z,99997.13
2024-04-18T01:22:09.724Z,99997.00
2024-04-18T01:24:42.217Z,99996.88
2024-04-18T01:27:11.748Z,100000.59
2024-04-18T01:29:41.211Z,100003.38
2024-04-18T01:32:08.082Z,100001.78
2024-04-18T01:34:37.735Z,100007.22
2024-04-18T01:37:05.052Z,100003.78
2024-04-18T01:39:34.653Z,100010.56
2024-04-18T01:42:01.507Z,100008.41
2024-04-18T01:44:33.660Z,100008.28
2024-04-18T01:47:00.524Z,100011.88
2024-04-18T01:49:29.990Z,100012.03
2024-04-18T01:51:56.799Z,100009.69
2024-04-18T01:54:26.261Z,100017.78
2024-04-18T01:56:53.144Z,100020.91
2024-04-18T01:59:22.550Z,100015.00
2024-04-18T02:01:52.254Z,100017.25
2024-04-18T02:04:22.237Z,100018.97
2024-04-18T02:06:50.457Z,100019.91
2024-04-18T02:09:20.430Z,100022.47
2024-04-18T02:11:48.282Z,100026.03
2024-04-18T02:14:18.101Z,100019.81
2024-04-18T02:16:44.950Z,100025.44
2024-04-18T02:19:17.012Z,100022.16
2024-04-18T02:21:44.003Z,100022.16
2024-04-18T02:24:13.572Z,100032.66
2024-04-18T02:26:41.103Z,100030.97
2024-04-18T02:29:10.587Z,100032.03
2024-04-18T02:31:37.459Z,100034.56
2024-04-18T02:34:07.207Z,100034.91
2024-04-18T02:36:39.068Z,100035.75
2024-04-18T02:39:08.529Z,100032.97
2024-04-18T02:41:35.386Z,100035.44
2024-04-18T02:44:04.885Z,100031.91
2024-04-18T02:46:31.871Z,100030.13
2024-04-18T02:49:01.410Z,100030.97
2024-04-18T02:51:28.288Z,100039.13
2024-04-18T02:54:00.349Z,100037.19
2024-04-18T02:56:27.181Z,100043.28
2024-04-18T02:58:56.705Z,100043.59
2024-04-18T03:01:23.560Z,100048.56
2024-04-18T03:03:53.188Z,100048.16
2024-04-18T03:06:20.116Z,100049.72
2024-04-18T03:08:49.603Z,100052.25
2024-04-18T03:11:19.430Z,100056.63
2024-04-18T03:13:48.889Z,100053.34
2024-04-18T03:16:15.772Z,100061.28
2024-04-18T03:18:45.978Z,100061.41
2024-04-18T03:21:13.101Z,100061.75
2024-04-18T03:23:42.539Z,100067.38
2024-04-18T03:26:09.415Z,100067.69
2024-04-18T03:28:41.555Z,100067.78
2024-04-18T03:31:08.421Z,100072.25
2024-04-18T03:33:38.202Z,100075.00
2024-04-18T03:36:05.815Z,100075.00
2024-04-18T03:38:35.313Z,100075.25
2024-04-18T03:41:04.802Z,100074.69
2024-04-18T03:43:34.584Z,100076.19
2024-04-18T03:46:06.811Z,100085.31
2024-04-18T03:48:33.753Z,100089.03
2024-04-18T03:51:03.305Z,100096.13
2024-04-18T03:53:30.131Z,100090.94
2024-04-18T03:55:59.574Z,100095.28
2024-04-18T03:58:26.441Z,100100.44
2024-04-18T04:00:56.086Z,100104.19
2024-04-18T04:03:25.764Z,100104.91
2024-04-18T04:05:55.593Z,100107.34
2024-04-18T04:08:22.470Z,100109.28
2024-04-18T04:10:52.044Z,100110.94
2024-04-18T04:13:19.168Z,100121.66
2024-04-18T04:15:51.349Z,100112.13
2024-04-18T04:18:20.159Z,100119.22
2024-04-18T04:20:52.319Z,100128.34
2024-04-18T04:23:19.506Z,100123.25
2024-04-18T04:25:49.305Z,100123.16
2024-04-18T04:28:16.255Z,100128.78
2024-04-18T04:30:45.740Z,100135.84
2024-04-18T04:33:12.686Z,100123.69
2024-04-18T04:35:42.225Z,100137.47
2024-04-18T04:38:11.717Z,100134.47
2024-04-18T04:40:41.532Z,100146.00
2024-04-18T04:43:08.429Z,100144.00
2024-04-18T04:45:38.188Z,100147.81
2024-04-18T04:48:06.424Z,100142.00
2024-04-18T04:50:38.452Z,100154.94
2024-04-18T04:53:05.303Z,100160.88
2024-04-18T04:55:37.389Z,100160.63
2024-04-18T04:58:04.679Z,100162.53
2024-04-18T05:00:34.265Z,100164.44
2024-04-18T05:03:01.417Z,100168.06
2024-04-18T05:05:31.011Z,100171.56
2024-04-18T05:07:57.906Z,100175.88
2024-04-18T05:10:29.874Z,100185.34
2024-04-18T05:13:02.246Z,100188.00
2024-04-18T05:15:32.079Z,100190.50
2024-04-18T05:18:01.774Z,100194.88
2024-04-18T05:20:28.705Z,100196.34
2024-04-18T05:22:58.476Z,100198.25
2024-04-18T05:25:25.364Z,100194.88
2024-04-18T05:28:05.465Z,100211.84
2024-04-18T05:30:53.601Z,100211.09
2024-04-18T05:33:23.175Z,100212.97
2024-04-18T05:35:53.544Z,100220.16
2024-04-18T05:38:23.189Z,100219.13
2024-04-18T05:40:52.996Z,100224.44
2024-04-18T05:43:22.705Z,100227.72
2024-04-18T05:45:54.969Z,100233.88
2024-04-18T05:48:24.694Z,100233.88
2024-04-18T05:50:51.628Z,100238.41
2024-04-18T05:53:21.238Z,100241.16
2024-04-18T05:55:50.945Z,100242.00
2024-04-18T05:58:22.926Z,100240.09
2024-04-18T06:00:55.121Z,100252.19
2024-04-18T06:03:25.493Z,100249.66
2024-04-18T06:05:57.671Z,100259.19
2024-04-18T06:08:27.236Z,100263.66
2024-04-18T06:10:56.711Z,100269.56
2024-04-18T06:13:28.256Z,100262.06
2024-04-18T06:16:01.638Z,100270.66
2024-04-18T06:18:31.346Z,100275.81
2024-04-18T06:21:00.902Z,100278.28
2024-04-18T06:23:30.446Z,100281.56
2024-04-18T06:25:59.883Z,100283.06
2024-04-18T06:28:29.356Z,100284.63
2024-04-18T06:30:59.029Z,100287.81
2024-04-18T06:33:31.103Z,100288.34
2024-04-18T06:36:01.590Z,100295.88
2024-04-18T06:38:31.159Z,100298.31
2024-04-18T06:41:00.781Z,100302.44
2024-04-18T06:43:30.391Z,100308.69
2024-04-18T06:46:03.467Z,100312.72
2024-04-18T06:48:33.221Z,100317.94
2024-04-18T06:51:02.780Z,100317.59
2024-04-18T06:53:32.263Z,100327.13
2024-04-18T06:56:04.417Z,100331.41
2024-04-18T06:58:33.933Z,100332.78
2024-04-18T07:01:06.633Z,100335.19
2024-04-18T07:03:36.117Z,100344.53
2024-04-18T07:06:06.297Z,100341.53
2024-04-18T07:08:36.213Z,100344.63
2024-04-18T07:11:05.871Z,100350.00
2024-04-18T07:13:36.350Z,100353.84
2024-04-18T07:16:09.679Z,100351.03
2024-04-18T07:18:39.417Z,100358.56
2024-04-18T07:21:08.979Z,100354.81
2024-04-18T07:23:38.518Z,100357.31
2024-04-18T07:26:08.343Z,100361.78
2024-04-18T07:28:37.825Z,100363.78
2024-04-18T07:31:09.942Z,100357.13
2024-04-18T07:33:39.626Z,100368.44
2024-04-18T07:36:09.618Z,100364.03
2024-04-18T07:38:39.216Z,100372.44
2024-04-18T07:41:10.118Z,100371.06
2024-04-18T07:43:39.595Z,100370.88
2024-04-18T07:46:14.158Z,100373.03
2024-04-18T07:48:44.036Z,100390.19
2024-04-18T07:51:13.558Z,100389.66
2024-04-18T07:53:43.088Z,100394.75
2024-04-18T07:56:12.953Z,100394.09
2024-04-18T07:58:42.911Z,100403.47
2024-04-18T08:01:16.953Z,100400.81
2024-04-18T08:03:56.680Z,100410.13
2024-04-18T08:06:38.828Z,100411.41
2024-04-18T08:09:13.281Z,100402.34
2024-04-18T08:12:17.548Z,100415.88
2024-04-18T08:14:38.168Z,100412.84
2024-04-18T08:17:12.952Z,100419.75
2024-04-18T08:19:42.593Z,100417.72
2024-04-18T08:22:12.129Z,100420.88
2024-04-18T08:24:41.976Z,100425.16
2024-04-18T08:27:11.993Z,100430.84
2024-04-18T08:29:41.597Z,100436.78
2024-04-18T08:32:13.830Z,100435.69
2024-04-18T08:34:45.056Z,100441.41
2024-04-18T08:37:14.733Z,100444.50
2024-04-18T08:39:44.345Z,100450.06
2024-04-18T08:42:15.423Z,100455.38
2024-04-18T08:44:45.398Z,100454.75
2024-04-18T08:47:19.954Z,100454.16
2024-04-18T08:49:50.150Z,100457.53
2024-04-18T08:52:21.922Z,100456.31
2024-04-18T08:54:51.417Z,100466.22
2024-04-18T08:57:22.912Z,100463.34
2024-04-18T08:59:58.340Z,100455.09
2024-04-18T09:02:30.826Z,100473.72
2024-04-18T09:05:02.040Z,100472.63
2024-04-18T09:07:31.664Z,100475.34
2024-04-18T09:10:11.355Z,100479.72
2024-04-18T09:12:40.992Z,100473.50
2024-04-18T09:15:11.495Z,100469.66
2024-04-18T09:17:44.122Z,100472.72
2024-04-18T09:20:14.115Z,100481.78
2024-04-18T09:22:43.690Z,100481.31
2024-04-18T09:25:13.599Z,100480.22
2024-04-18T09:27:40.764Z,100489.06
2024-04-18T09:30:11.662Z,100486.69
2024-04-18T09:32:44.957Z,100488.16
2024-04-18T09:35:15.472Z,100488.28
2024-04-18T09:37:52.740Z,100485.88
2024-04-18T09:40:30.092Z,100488.41
2024-04-18T09:43:09.325Z,100487.78
2024-04-18T09:45:51.520Z,100490.09
2024-04-18T09:48:25.101Z,100486.84
2024-04-18T09:50:55.829Z,100498.69
2024-04-18T09:53:25.999Z,100497.97
2024-04-18T09:55:56.908Z,100501.47
2024-04-18T09:58:28.740Z,100501.97
2024-04-18T10:00:57.186Z,100510.41
2024-04-18T10:03:31.756Z,100508.22
2024-04-18T10:06:05.278Z,100507.63
2024-04-18T10:08:39.925Z,100510.13
2024-04-18T10:11:11.253Z,100518.09
2024-04-18T10:13:41.042Z,100511.75
2024-04-18T10:16:12.476Z,100513.72
2024-04-18T10:18:46.009Z,100515.06
2024-04-18T10:21:18.754Z,100517.59
2024-04-18T10:23:52.677Z,100512.50
2024-04-18T10:26:23.514Z,100523.44
2024-04-18T10:28:53.899Z,100523.38
2024-04-18T10:31:23.425Z,100532.59
2024-04-18T10:33:55.717Z,100524.81
2024-04-18T10:36:28.298Z,100523.53
2024-04-18T10:38:57.889Z,100527.03
2024-04-18T10:41:28.691Z,100535.78
2024-04-18T10:43:59.221Z,100540.78
2024-04-18T10:46:30.345Z,100539.19
2024-04-18T10:49:02.779Z,100534.22
2024-04-18T10:51:34.432Z,100534.34
2024-04-18T10:54:04.106Z,100541.16
2024-04-18T10:56:34.121Z,100544.66
2024-04-18T10:59:03.876Z,100548.28
2024-04-18T11:01:40.030Z,100534.25
2024-04-18T11:04:13.231Z,100543.84
2024-04-18T11:06:43.268Z,100539.47
2024-04-18T11:09:13.993Z,100542.63
2024-04-18T11:11:43.718Z,100545.28
2024-04-18T11:14:14.911Z,100546.59
2024-04-18T11:16:44.739Z,100547.78
2024-04-18T11:19:17.581Z,100544.88
2024-04-18T11:21:47.166Z,100542.75
2024-04-18T11:24:16.789Z,100542.97
2024-04-18T11:26:43.719Z,100543.50
2024-04-18T11:29:13.268Z,100543.13
2024-04-18T11:31:42.984Z,100553.34
2024-04-18T11:34:13.095Z,100551.38
2024-04-18T11:36:45.259Z,100543.53
2024-04-18T11:39:15.704Z,100549.00
2024-04-18T11:41:45.277Z,100553.19
2024-04-18T11:44:15.359Z,100546.09
2024-04-18T11:46:45.094Z,100539.22
2024-04-18T11:49:15.603Z,100550.16
2024-04-18T11:51:47.814Z,100542.50
2024-04-18T11:54:17.524Z,100549.03
2024-04-18T11:56:47.162Z,100542.28
2024-04-18T11:59:18.021Z,100551.31
2024-04-18T12:01:47.700Z,100542.28
2024-04-18T12:04:17.478Z,100546.06
2024-04-18T12:06:49.812Z,100546.16
2024-04-18T12:09:19.420Z,100540.38
2024-04-18T12:11:49.029Z,100554.19
2024-04-18T12:14:18.640Z,100552.53
2024-04-18T12:16:48.247Z,100541.59
2024-04-18T12:19:17.924Z,100549.75
2024-04-18T12:21:50.207Z,100548.78
2024-04-18T12:24:21.300Z,100551.03
2024-04-18T12:26:48.290Z,100549.72
2024-04-18T12:29:17.842Z,100553.66
2024-04-18T12:31:47.555Z,100557.03
2024-04-18T12:34:17.177Z,100546.44
2024-04-18T12:36:46.960Z,100551.09
2024-04-18T12:39:19.580Z,100551.22
2024-04-18T12:41:49.174Z,100557.44
2024-04-18T12:44:20.571Z,100552.22
2024-04-18T12:46:50.267Z,100548.94
2024-04-18T12:49:20.070Z,100552.56
2024-04-18T12:51:49.784Z,100555.97
2024-04-18T12:54:22.032Z,100559.25
2024-04-18T12:56:50.319Z,100563.88
2024-04-18T12:59:20.749Z,100557.28
2024-04-18T13:01:50.329Z,100550.50
2024-04-18T13:04:17.308Z,100556.56
2024-04-18T13:06:46.948Z,100558.28
2024-04-18T13:09:16.511Z,100559.28
2024-04-18T13:11:48.683Z,100561.44
2024-04-18T13:14:18.196Z,100562.56
2024-04-18T13:16:50.383Z,100561.56
2024-04-18T13:19:19.900Z,100555.97
2024-04-18T13:21:49.456Z,100568.06
2024-04-18T13:24:20.442Z,100563.97
2024-04-18T13:26:53.024Z,100565.63
2024-04-18T13:29:20.654Z,100559.28
2024-04-18T13:31:50.299Z,100563.88
2024-04-18T13:34:19.863Z,100567.66
2024-04-18T13:36:49.766Z,100565.66
2024-04-18T13:39:19.306Z,100563.66
2024-04-18T13:41:48.988Z,100560.16
2024-04-18T13:44:21.642Z,100553.53
2024-04-18T13:46:51.163Z,100560.06
2024-04-18T13:49:20.828Z,100558.22
2024-04-18T13:51:50.633Z,100557.50
2024-04-18T13:54:21.101Z,100560.59
2024-04-18T13:56:50.781Z,100567.38
2024-04-18T13:59:22.991Z,100569.59
2024-04-18T14:01:55.549Z,100570.94
2024-04-18T14:04:25.352Z,100569.88
2024-04-18T14:06:55.157Z,100564.94
2024-04-18T14:09:27.917Z,100568.19
2024-04-18T14:11:57.899Z,100573.00
2024-04-18T14:14:30.522Z,100566.94
2024-04-18T14:17:15.890Z,100569.91
2024-04-18T14:19:45.433Z,100568.31
2024-04-18T14:22:15.287Z,100572.28
2024-04-18T14:24:45.192Z,100565.25
2024-04-18T14:27:14.787Z,100577.53
2024-04-18T14:29:46.977Z,100575.63
2024-04-18T14:32:16.648Z,100579.69
2024-04-18T14:34:46.214Z,100576.59
2024-04-18T14:37:15.720Z,100574.13
2024-04-18T14:39:45.333Z,100576.81
2024-04-18T14:42:15.027Z,100574.25
2024-04-18T14:44:48.621Z,100579.63
2024-04-18T14:47:18.603Z,100577.31
2024-04-18T14:49:48.368Z,100579.78
2024-04-18T14:52:17.882Z,100577.94
2024-04-18T14:54:47.398Z,100566.66
2024-04-18T14:57:16.970Z,100565.13
2024-04-18T14:59:49.119Z,100574.97
2024-04-18T15:02:18.682Z,100572.00
2024-04-18T15:04:47.952Z,100570.19
2024-04-18T15:07:17.691Z,100561.19
2024-04-18T15:09:47.271Z,100561.59
2024-04-18T15:12:18.266Z,100560.91
2024-04-18T15:14:53.867Z,100563.09
2024-04-18T15:17:23.448Z,100564.53
2024-04-18T15:19:52.956Z,100569.66
2024-04-18T15:22:22.588Z,100561.72
2024-04-18T15:24:52.079Z,100548.75
2024-04-18T15:27:21.606Z,100559.38
2024-04-18T15:29:53.791Z,100554.19
2024-04-18T15:32:24.627Z,100543.88
2024-04-18T15:34:51.850Z,100546.91
2024-04-18T15:37:21.411Z,100548.59
2024-04-18T15:39:50.965Z,100543.19
2024-04-18T15:42:20.706Z,100558.41
2024-04-18T15:44:52.848Z,100565.78
2024-04-18T15:47:22.529Z,100558.34
2024-04-18T15:49:54.752Z,100563.28
2024-04-18T15:52:24.278Z,100554.44
2024-04-18T15:55:04.670Z,100558.53
2024-04-18T15:57:42.562Z,100556.63
2024-04-18T16:00:18.327Z,100555.50
2024-04-18T16:02:51.519Z,100561.53
2024-04-18T16:05:21.391Z,100554.09
2024-04-18T16:07:51.192Z,100550.84
2024-04-18T16:10:20.682Z,100558.31
2024-04-18T16:12:50.239Z,100562.00
2024-04-18T16:15:23.260Z,100568.91
2024-04-18T16:17:52.926Z,100573.16
2024-04-18T16:20:22.458Z,100589.09
2024-04-18T16:22:51.969Z,100590.06
2024-04-18T16:25:21.573Z,100577.06
2024-04-18T16:27:51.281Z,100576.53
2024-04-18T16:30:26.246Z,100572.88
2024-04-18T16:32:55.850Z,100582.59
2024-04-18T16:35:25.377Z,100584.03
2024-04-18T16:37:55.331Z,100595.41
2024-04-18T16:40:24.888Z,100603.84
2024-04-18T16:43:03.791Z,100607.84
2024-04-18T16:45:36.781Z,100614.91
2024-04-18T16:48:07.006Z,100619.63
2024-04-18T16:50:36.673Z,100624.47
2024-04-18T16:53:06.364Z,100616.50
2024-04-18T16:55:35.942Z,100626.19
2024-04-18T16:58:02.832Z,100632.66
2024-04-18T17:00:32.725Z,100630.47
2024-04-18T17:03:05.660Z,100643.44
2024-04-18T17:05:35.699Z,100641.28
2024-04-18T17:08:05.239Z,100642.38
2024-04-18T17:10:34.734Z,100633.41
2024-04-18T17:13:04.249Z,100636.06
2024-04-18T17:15:34.195Z,100632.91
2024-04-18T17:18:06.923Z,100630.63
2024-04-18T17:20:36.452Z,100639.69
2024-04-18T17:23:06.146Z,100636.41
2024-04-18T17:25:35.666Z,100639.31
2024-04-18T17:28:05.483Z,100639.56
2024-04-18T17:30:35.083Z,100636.03
2024-04-18T17:33:08.020Z,100636.53
2024-04-18T17:35:37.787Z,100631.09
2024-04-18T17:38:07.717Z,100640.53
2024-04-18T17:40:37.279Z,100636.19
2024-04-18T17:43:08.631Z,100645.78
2024-04-18T17:45:38.341Z,100646.47
2024-04-18T17:48:11.613Z,100656.78
2024-04-18T17:50:42.379Z,100657.75
2024-04-18T17:53:12.002Z,100665.03
2024-04-18T17:55:41.590Z,100669.63
2024-04-18T17:58:11.249Z,100672.63
2024-04-18T18:00:41.167Z,100665.34
2024-04-18T18:03:13.748Z,100662.00
2024-04-18T18:05:43.594Z,100669.00
2024-04-18T18:08:10.653Z,100671.88
2024-04-18T18:10:40.437Z,100671.88
2024-04-18T18:13:09.972Z,100674.25
2024-04-18T18:15:39.565Z,100679.22
2024-04-18T18:18:10.590Z,100677.53
2024-04-18T18:20:43.707Z,100679.69
2024-04-18T18:23:16.548Z,100683.91
2024-04-18T18:25:43.765Z,100684.66
2024-04-18T18:28:13.491Z,100689.97
2024-04-18T18:30:40.529Z,100692.78
2024-04-18T18:33:10.524Z,100700.25
2024-04-18T18:35:41.123Z,100698.78
2024-04-18T18:38:11.450Z,100698.16
2024-04-18T18:40:41.007Z,100697.66
2024-04-18T18:43:08.159Z,100702.25
2024-04-18T18:45:38.046Z,100708.88
2024-04-18T18:48:07.434Z,100712.59
2024-04-18T18:50:37.040Z,100714.75
2024-04-18T18:53:06.890Z,100718.47
2024-04-18T18:55:36.687Z,100718.81
2024-04-18T18:58:04.704Z,100721.63
2024-04-18T19:00:34.457Z,100727.50
2024-04-18T19:03:05.016Z,100722.31
2024-04-18T19:05:34.952Z,100728.91
2024-04-18T19:08:01.976Z,100737.00
2024-04-18T19:10:34.107Z,100725.38
2024-04-18T19:13:01.040Z,100727.75
2024-04-18T19:15:31.041Z,100729.88
2024-04-18T19:17:58.060Z,100737.88
2024-04-18T19:20:27.868Z,100733.31
2024-04-18T19:22:55.014Z,100731.72
2024-04-18T19:25:24.535Z,100740.53
2024-04-18T19:27:54.182Z,100741.41
2024-04-18T19:30:23.743Z,100740.25
2024-04-18T19:32:51.996Z,100743.00
2024-04-18T19:35:21.743Z,100734.19
2024-04-18T19:37:48.640Z,100733.53
2024-04-18T19:40:18.471Z,100728.44
2024-04-18T19:42:45.508Z,100730.47
2024-04-18T19:45:17.896Z,100729.41
2024-04-18T19:47:45.837Z,100726.31
2024-04-18T19:50:15.423Z,100730.47
2024-04-18T19:52:43.018Z,100735.56
2024-04-18T19:55:12.612Z,100738.97
2024-04-18T19:57:39.668Z,100734.94
2024-04-18T20:00:10.240Z,100737.19
2024-04-18T20:02:39.940Z,100732.16
2024-04-18T20:05:09.817Z,100733.00
2024-04-18T20:07:37.464Z,100728.75
2024-04-18T20:10:07.444Z,100731.06
2024-04-18T20:12:34.496Z,100731.50
2024-04-18T20:15:04.065Z,100727.13
2024-04-18T20:17:30.998Z,100727.34
2024-04-18T20:20:03.295Z,100722.31
2024-04-18T20:22:30.227Z,100720.81
2024-04-18T20:24:59.755Z,100722.38
2024-04-18T20:27:26.776Z,100724.69
2024-04-18T20:29:57.089Z,100727.16
2024-04-18T20:32:24.872Z,100727.03
2024-04-18T20:34:55.347Z,100729.06
2024-04-18T20:37:25.571Z,100726.59
2024-04-18T20:39:58.533Z,100724.09
2024-04-18T20:42:26.967Z,100722.16
2024-04-18T20:44:56.620Z,100722.97
2024-04-18T20:47:23.617Z,100713.91
2024-04-18T20:49:53.150Z,100712.97
2024-04-18T20:52:20.144Z,100713.19
2024-04-18T20:54:53.112Z,100715.28
2024-04-18T20:57:20.027Z,100713.00
2024-04-18T20:59:49.588Z,100715.28
2024-04-18T21:02:16.703Z,100711.97
2024-04-18T21:04:46.225Z,100719.94
2024-04-18T21:07:13.072Z,100709.91
2024-04-18T21:09:42.828Z,100712.44
2024-04-18T21:12:15.060Z,100709.13
2024-04-18T21:14:41.919Z,100711.59
2024-04-18T21:17:11.614Z,100717.84
2024-04-18T21:19:38.556Z,100719.84
2024-04-18T21:22:08.180Z,100719.25
2024-04-18T21:24:35.140Z,100733.38
2024-04-18T21:27:04.744Z,100741.16
2024-04-18T21:29:34.308Z,100732.63
2024-04-18T21:32:03.902Z,100732.06
2024-04-18T21:34:30.881Z,100730.56
2024-04-18T21:37:00.420Z,100735.75
2024-04-18T21:39:27.447Z,100726.94
2024-04-18T21:41:57.002Z,100726.09
2024-04-18T21:44:23.892Z,100720.81
2024-04-18T21:46:56.015Z,100718.25
2024-04-18T21:49:23.094Z,100716.56
2024-04-18T21:51:52.728Z,100723.06
2024-04-18T21:54:19.701Z,100714.38
2024-04-18T21:56:49.234Z,100716.25
2024-04-18T21:59:16.723Z,100719.94
2024-04-18T22:01:46.211Z,100721.72
2024-04-18T22:04:15.990Z,100705.84
2024-04-18T22:06:46.966Z,100709.53
2024-04-18T22:09:14.020Z,100711.41
2024-04-18T22:11:44.108Z,100713.09
2024-04-18T22:14:11.036Z,100717.19
2024-04-18T22:16:40.583Z,100712.47
2024-04-18T22:19:07.562Z,100712.00
2024-04-18T22:21:40.300Z,100702.53
2024-04-18T22:24:10.712Z,100697.41
2024-04-18T22:26:37.975Z,100691.06
2024-04-18T22:29:07.649Z,100694.78
2024-04-18T22:31:34.662Z,100694.84
2024-04-18T22:34:04.212Z,100689.19
2024-04-18T22:36:31.182Z,100689.19
2024-04-18T22:39:03.589Z,100694.47
2024-04-18T22:41:30.470Z,100701.75
2024-04-18T22:43:59.904Z,100697.22
2024-04-18T22:46:26.810Z,100693.44
2024-04-18T22:48:56.432Z,100697.13
2024-04-18T22:51:23.444Z,100691.81
2024-04-18T22:53:53.021Z,100690.91
2024-04-18T22:56:25.808Z,100695.63
2024-04-18T22:58:55.378Z,100693.81
2024-04-18T23:01:22.492Z,100689.38
2024-04-18T23:03:52.092Z,100699.78
2024-04-18T23:06:19.083Z,100700.44
2024-04-18T23:08:48.548Z,100696.84
2024-04-18T23:11:15.600Z,100697.88
2024-04-18T23:13:48.617Z,100702.63
2024-04-18T23:16:15.583Z,100698.19
2024-04-18T23:18:45.559Z,100691.16
2024-04-18T23:21:12.578Z,100692.88
2024-04-18T23:23:42.110Z,100701.97
2024-04-18T23:26:08.984Z,100702.72
2024-04-18T23:28:38.451Z,100694.78
2024-04-18T23:31:09.319Z,100677.28
2024-04-18T23:33:38.855Z,100681.78
2024-04-18T23:36:05.959Z,100681.16
2024-04-18T23:38:35.705Z,100674.81
2024-04-18T23:41:02.634Z,100667.31
2024-04-18T23:43:32.069Z,100669.59
2024-04-18T23:45:59.133Z,100667.91
2024-04-18T23:48:32.405Z,100662.78
2024-04-18T23:51:01.490Z,100662.50
2024-04-18T23:53:31.183Z,100656.47
2024-04-18T23:55:59.100Z,100653.59
2024-04-18T23:58:28.569Z,100648.31
